Time;durP1;ratioP1;P1;durP2;ratioP2;P2;SDS_P1;SDS_P2;PMS_P1;PMS_P2;Temp;Humidity;BMP_temperature;BMP_pressure;BME280_temperature;BME280_humidity;BME280_pressure;Samples;Min_cycle;Max_cycle;Signal;HPM_P1;HPM_P2
2023/08/30 00:02:08;;;;;;;2.83;2.20;;;;;;;11.80;91.36;100808.53;5031604;28;20805;-81
2023/08/30 00:04:34;;;;;;;2.33;2.13;;;;;;;11.76;91.66;100804.25;5032424;28;20538;-81
2023/08/30 00:06:59;;;;;;;2.60;2.20;;;;;;;11.71;91.37;100801.75;5032183;28;20355;-81
2023/08/30 00:09:25;;;;;;;3.07;2.40;;;;;;;11.71;91.70;100800.91;5031746;28;20048;-81
2023/08/30 00:11:50;;;;;;;2.50;2.27;;;;;;;11.70;91.96;100804.41;5023680;23;20145;-81
2023/08/30 00:14:15;;;;;;;4.03;2.43;;;;;;;11.66;91.79;100795.78;5012644;28;20030;-81
2023/08/30 00:16:41;;;;;;;3.90;2.40;;;;;;;11.67;91.79;100796.66;5011710;28;20053;-82
2023/08/30 00:19:06;;;;;;;3.23;2.30;;;;;;;11.61;91.58;100791.56;5012649;28;20018;-82
2023/08/30 00:21:31;;;;;;;3.40;2.60;;;;;;;11.62;91.84;100791.56;5081817;22;20053;-81
2023/08/30 00:23:57;;;;;;;2.53;2.27;;;;;;;11.55;91.88;100790.81;5031612;28;20056;-81
2023/08/30 00:26:22;;;;;;;3.53;2.50;;;;;;;11.55;91.78;100790.81;5031961;28;20030;-81
2023/08/30 00:28:48;;;;;;;3.33;2.27;;;;;;;11.53;91.96;100795.19;5032534;28;20030;-81
2023/08/30 00:31:13;;;;;;;3.83;2.40;;;;;;;11.49;92.05;100790.94;5030946;28;20066;-81
2023/08/30 00:33:38;;;;;;;3.00;2.27;;;;;;;11.47;91.92;100787.53;5032477;28;20079;-81
2023/08/30 00:36:04;;;;;;;2.33;2.13;;;;;;;11.44;92.31;100795.38;5033888;28;20484;-81
2023/08/30 00:38:32;;;;;;;3.93;2.57;;;;;;;11.44;92.32;100787.59;5035364;28;20025;-81
2023/08/30 00:40:58;;;;;;;3.88;2.72;;;;;;;11.43;92.15;100780.69;5035907;28;20029;-81
2023/08/30 00:43:23;;;;;;;3.50;2.67;;;;;;;11.45;92.30;100784.09;5035961;28;20017;-81
2023/08/30 00:45:49;;;;;;;3.00;2.53;;;;;;;11.44;92.21;100785.00;5035496;28;20355;-81
2023/08/30 00:48:16;;;;;;;3.77;2.60;;;;;;;11.42;92.35;100776.38;5035782;28;20014;-81
2023/08/30 00:50:42;;;;;;;;;;;;;;;11.37;92.47;100765.22;5036206;28;20029;-81
2023/08/30 00:53:23;;;;;;;3.38;2.30;;;;;;;11.33;92.52;100769.59;5034891;28;19927;-81
2023/08/30 00:55:49;;;;;;;3.72;2.67;;;;;;;11.32;92.30;100767.03;5036041;28;20033;-81
2023/08/30 00:58:14;;;;;;;3.30;2.53;;;;;;;11.27;92.46;100765.38;5034902;28;20030;-81
2023/08/30 01:00:40;;;;;;;2.50;2.10;;;;;;;11.25;92.33;100766.28;5035214;28;20029;-81
2023/08/30 01:03:07;;;;;;;2.57;2.30;;;;;;;11.23;92.75;100765.47;5035618;28;20022;-81
2023/08/30 01:05:32;;;;;;;2.63;2.30;;;;;;;11.19;93.13;100750.84;5035074;28;20025;-81
2023/08/30 01:07:57;;;;;;;3.60;2.53;;;;;;;11.13;93.24;100752.66;5035311;28;20029;-81
2023/08/30 01:10:33;;;;;;;2.83;2.50;;;;;;;11.07;93.04;100751.91;5035275;28;20036;-81
2023/08/30 01:13:11;;;;;;;3.65;2.45;;;;;;;11.06;93.45;100758.00;5034565;28;20079;-81
2023/08/30 01:15:39;;;;;;;3.22;2.55;;;;;;;11.04;93.18;100768.41;5035612;28;20034;-81
2023/08/30 01:18:05;;;;;;;3.90;2.65;;;;;;;11.00;93.63;100756.38;5035508;28;20080;-81
2023/08/30 01:20:36;;;;;;;2.65;2.20;;;;;;;10.98;93.15;100750.34;5033856;28;20050;-81
2023/08/30 01:23:05;;;;;;;2.30;2.10;;;;;;;11.00;93.43;100758.97;5035396;28;20482;-81
2023/08/30 01:25:33;;;;;;;3.78;2.60;;;;;;;10.99;93.44;100754.66;5035370;28;20032;-81
2023/08/30 01:28:04;;;;;;;2.85;2.30;;;;;;;10.97;93.47;100753.84;5034915;28;20035;-81
2023/08/30 01:30:32;;;;;;;3.17;2.30;;;;;;;10.94;93.59;100740.91;5034875;28;20532;-81
2023/08/30 01:32:59;;;;;;;2.65;2.35;;;;;;;10.90;93.39;100742.72;5034896;28;20374;-81
2023/08/30 01:35:30;;;;;;;2.70;2.22;;;;;;;10.93;93.50;100742.63;5034110;28;20398;-81
2023/08/30 01:37:56;;;;;;;2.58;2.20;;;;;;;10.95;93.20;100753.84;5035289;28;20390;-81
2023/08/30 01:40:22;;;;;;;2.83;2.30;;;;;;;10.92;93.14;100750.47;5033755;28;20099;-80
2023/08/30 01:42:48;;;;;;;3.20;2.50;;;;;;;10.91;93.48;100749.63;5034917;28;20029;-81
2023/08/30 01:45:14;;;;;;;2.90;2.45;;;;;;;10.88;93.40;100751.41;5034636;28;20033;-81
2023/08/30 01:47:43;;;;;;;3.63;2.38;;;;;;;10.88;93.22;100756.59;5033388;28;20049;-81
2023/08/30 01:50:10;;;;;;;3.90;2.60;;;;;;;10.86;93.21;100748.84;5034708;28;20033;-81
2023/08/30 01:52:38;;;;;;;4.00;2.75;;;;;;;10.85;93.36;100754.06;5034887;28;20037;-81
2023/08/30 01:55:05;;;;;;;3.40;2.60;;;;;;;10.89;93.27;100750.50;5034112;28;20030;-81
2023/08/30 01:57:30;;;;;;;;;;;;;;;10.89;93.32;100747.91;5034889;28;20036;-81
2023/08/30 01:59:56;;;;;;;3.27;2.60;;;;;;;10.87;93.19;100745.34;5034328;28;19916;-81
2023/08/30 02:02:21;;;;;;;5.97;3.10;;;;;;;10.87;92.92;100745.34;5033669;28;20661;-81
2023/08/30 02:04:46;;;;;;;4.90;2.90;;;;;;;10.84;93.01;100740.22;5034713;28;20430;-81
2023/08/30 02:07:21;;;;;;;4.43;2.97;;;;;;;10.84;93.23;100739.38;5034112;28;20124;-81
2023/08/30 02:09:57;;;;;;;5.85;3.28;;;;;;;10.83;93.34;100743.69;5033556;28;20033;-81
2023/08/30 02:12:25;;;;;;;4.38;3.00;;;;;;;10.81;93.05;100737.66;5034132;28;20029;-81
2023/08/30 02:14:52;;;;;;;4.72;2.97;;;;;;;10.80;93.27;100736.81;5034098;28;20041;-81
2023/08/30 02:17:19;;;;;;;5.50;3.17;;;;;;;10.80;93.18;100736.81;5033179;28;20028;-81
2023/08/30 02:19:45;;;;;;;4.30;3.10;;;;;;;10.76;93.26;100729.97;5034171;28;20100;-82
2023/08/30 02:22:11;;;;;;;4.40;2.92;;;;;;;10.70;93.30;100722.28;5033833;28;20048;-81
2023/08/30 02:24:37;;;;;;;2.95;2.40;;;;;;;10.69;93.37;100725.78;5033224;28;20531;-81
2023/08/30 02:27:02;;;;;;;4.00;2.73;;;;;;;10.54;93.28;100710.47;5034061;28;20030;-82
2023/08/30 02:29:28;;;;;;;3.93;2.60;;;;;;;10.62;93.37;100730.22;5033950;28;20465;-81
2023/08/30 02:31:53;;;;;;;5.07;2.77;;;;;;;10.61;93.45;100723.31;5032878;28;20120;-81
2023/08/30 02:34:18;;;;;;;4.73;2.90;;;;;;;10.60;93.61;100721.59;5033839;28;20021;-82
2023/08/30 02:36:43;;;;;;;5.03;2.87;;;;;;;10.58;93.40;100712.13;5033409;28;20017;-81
2023/08/30 02:39:11;;;;;;;4.53;2.90;;;;;;;10.56;93.35;100708.69;5033573;28;20022;-81
2023/08/30 02:41:37;;;;;;;4.40;2.90;;;;;;;10.57;93.49;100716.47;5033740;28;20025;-82
2023/08/30 02:44:03;;;;;;;4.13;2.83;;;;;;;10.55;93.67;100717.38;5032703;28;20021;-81
2023/08/30 02:46:28;;;;;;;4.23;2.90;;;;;;;10.55;93.68;100709.56;5033879;28;20059;-81
2023/08/30 02:48:54;;;;;;;3.47;2.57;;;;;;;10.55;93.80;100713.03;5033805;28;20501;-81
2023/08/30 02:51:20;;;;;;;4.13;2.60;;;;;;;10.54;93.82;100713.94;5032596;28;20100;-81
2023/08/30 02:53:45;;;;;;;3.97;2.67;;;;;;;10.56;93.66;100706.09;5033970;28;20053;-82
2023/08/30 02:56:11;;;;;;;4.23;2.50;;;;;;;10.57;93.79;100707.81;5032944;28;20025;-82
2023/08/30 02:58:37;;;;;;;;;;;;;;;10.56;94.12;100704.38;5032046;28;20060;-81
2023/08/30 03:01:03;;;;;;;4.20;2.60;;;;;;;10.57;93.88;100706.09;5032578;28;19917;-82
2023/08/30 03:03:28;;;;;;;4.13;2.73;;;;;;;10.56;94.16;100693.13;5032406;28;20048;-81
2023/08/30 03:05:54;;;;;;;3.50;2.70;;;;;;;10.61;93.94;100694.75;5032642;28;20041;-81
2023/08/30 03:08:19;;;;;;;3.90;2.70;;;;;;;10.62;94.07;100693.88;5032920;28;20029;-81
2023/08/30 03:10:44;;;;;;;4.03;2.90;;;;;;;10.61;94.10;100694.75;5032947;28;20033;-81
2023/08/30 03:13:10;;;;;;;3.97;2.87;;;;;;;10.63;94.03;100689.56;5032155;28;20029;-82
2023/08/30 03:15:35;;;;;;;3.90;2.50;;;;;;;10.64;94.20;100697.31;5033536;28;20497;-82
2023/08/30 03:18:01;;;;;;;3.57;2.40;;;;;;;10.63;94.33;100689.56;5033061;28;20025;-81
2023/08/30 03:20:28;;;;;;;4.37;2.73;;;;;;;10.66;94.40;100686.88;5031693;28;20037;-82
2023/08/30 03:22:55;;;;;;;4.03;2.60;;;;;;;10.69;94.52;100698.97;5032983;28;20135;-82
2023/08/30 03:25:20;;;;;;;2.75;2.22;;;;;;;10.70;94.75;100695.47;5032737;28;20028;-81
2023/08/30 03:27:46;;;;;;;3.60;2.60;;;;;;;10.70;94.81;100693.75;5031931;28;20033;-81
2023/08/30 03:30:12;;;;;;;3.17;2.40;;;;;;;10.70;94.75;100670.38;5032656;28;20115;-81
2023/08/30 03:32:37;;;;;;;2.97;2.40;;;;;;;10.70;95.03;100662.59;5032750;28;20069;-82
2023/08/30 03:35:03;;;;;;;3.43;2.50;;;;;;;10.78;95.28;100671.09;5031497;28;20119;-81
2023/08/30 03:37:29;;;;;;;2.67;2.20;;;;;;;10.78;95.27;100663.31;5032599;28;20021;-81
2023/08/30 03:39:54;;;;;;;2.93;2.10;;;;;;;10.81;95.27;100657.19;5031893;28;20032;-80
2023/08/30 03:42:19;;;;;;;2.47;2.20;;;;;;;10.82;95.34;100657.19;5032213;28;20045;-81
2023/08/30 03:44:47;;;;;;;3.63;2.40;;;;;;;10.82;95.08;100646.78;5033129;28;20461;-82
2023/08/30 03:47:13;;;;;;;3.08;2.30;;;;;;;10.81;95.97;100639.00;5031168;28;20017;-81
2023/08/30 03:49:38;;;;;;;2.80;2.20;;;;;;;10.81;95.73;100629.50;5032422;28;20030;-81
2023/08/30 03:52:03;;;;;;;2.97;1.90;;;;;;;10.76;95.81;100626.13;5032432;28;20425;-81
2023/08/30 03:54:29;;;;;;;2.10;1.90;;;;;;;10.77;96.40;100624.41;5031992;28;20402;-81
2023/08/30 03:56:54;;;;;;;2.20;2.00;;;;;;;10.75;96.24;100623.56;5032544;28;20036;-81
2023/08/30 03:59:19;;;;;;;2.10;1.80;;;;;;;10.73;96.42;100618.44;5032227;28;20075;-81
2023/08/30 04:01:45;;;;;;;1.53;1.43;;;;;;;10.73;96.67;100612.34;5031910;28;20033;-81
2023/08/30 04:04:10;;;;;;;1.57;1.47;;;;;;;10.71;96.80;100601.16;5032494;28;20493;-81
2023/08/30 04:06:36;;;;;;;2.17;1.70;;;;;;;10.68;96.68;100596.03;5032810;28;20029;-81
2023/08/30 04:09:01;;;;;;;1.90;1.70;;;;;;;10.70;97.50;100591.66;5031530;28;20072;-81
2023/08/30 04:11:26;;;;;;;2.23;1.90;;;;;;;10.73;98.80;100591.59;5036448;28;20037;-81
2023/08/30 04:13:52;;;;;;;2.33;2.00;;;;;;;10.72;97.51;100579.50;5036519;28;20026;-81
2023/08/30 04:16:18;;;;;;;2.50;2.00;;;;;;;10.75;98.35;100585.47;5035629;28;20029;-81
2023/08/30 04:18:43;;;;;;;2.40;2.07;;;;;;;10.75;97.07;100589.84;5036261;28;20035;-81
2023/08/30 04:21:08;;;;;;;2.43;2.03;;;;;;;10.82;97.04;100602.66;5036094;28;20051;-81
2023/08/30 04:23:34;;;;;;;2.53;2.13;;;;;;;10.85;96.92;100599.13;5035343;28;20049;-82
2023/08/30 04:25:59;;;;;;;2.43;2.20;;;;;;;10.87;96.07;100605.16;5036085;28;20034;-81
2023/08/30 04:28:26;;;;;;;2.70;2.23;;;;;;;10.85;97.66;100590.50;5036039;28;20490;-81
2023/08/30 04:30:54;;;;;;;3.33;2.30;;;;;;;10.88;96.89;100601.69;5035226;28;20086;-81
2023/08/30 04:33:19;;;;;;;2.42;2.08;;;;;;;10.89;97.52;100592.13;5036046;28;20432;-82
2023/08/30 04:35:53;;;;;;;2.10;1.90;;;;;;;10.87;97.09;100583.53;5035930;28;20113;-82
2023/08/30 04:38:19;;;;;;;2.75;2.10;;;;;;;10.93;97.07;100584.25;5036062;28;20025;-81
2023/08/30 04:40:45;;;;;;;2.47;2.13;;;;;;;10.94;98.12;100588.56;5036046;28;20025;-82
2023/08/30 04:43:10;;;;;;;3.07;2.20;;;;;;;11.01;97.70;100591.88;5035093;28;20079;-81
2023/08/30 04:45:36;;;;;;;2.57;2.20;;;;;;;11.02;97.53;100579.78;5035613;28;20131;-81
2023/08/30 04:48:01;;;;;;;2.27;2.00;;;;;;;11.07;97.72;100588.31;5036028;28;20030;-81
2023/08/30 04:50:27;;;;;;;2.00;1.90;;;;;;;11.10;98.09;100581.28;5034525;28;20465;-81
2023/08/30 04:52:52;;;;;;;2.00;1.80;;;;;;;11.12;97.77;100578.69;5035804;28;20532;-81
2023/08/30 04:55:17;;;;;;;2.20;2.00;;;;;;;11.16;97.66;100579.47;5035935;28;20049;-81
2023/08/30 04:57:44;;;;;;;2.47;2.00;;;;;;;11.17;98.49;100570.78;5034875;28;20014;-81
2023/08/30 05:00:11;;;;;;;2.65;2.15;;;;;;;11.21;97.87;100567.22;5035367;28;20120;-82
2023/08/30 05:02:36;;;;;;;;;;;;;;;11.24;98.15;100560.22;5035761;28;20447;-81
2023/08/30 05:05:02;;;;;;;1.87;1.70;;;;;;;11.28;98.36;100561.84;5034849;28;19913;-82
2023/08/30 05:07:28;;;;;;;1.70;1.60;;;;;;;11.31;98.77;100558.34;5035650;28;20473;-81
2023/08/30 05:09:53;;;;;;;1.83;1.73;;;;;;;11.33;98.79;100550.50;5035425;28;20038;-82
2023/08/30 05:12:18;;;;;;;1.87;1.77;;;;;;;11.38;98.67;100559.03;5034341;28;20082;-82
2023/08/30 05:14:44;;;;;;;1.93;1.77;;;;;;;11.43;98.42;100554.59;5035438;28;20060;-81
2023/08/30 05:17:09;;;;;;;2.93;2.30;;;;;;;11.36;98.70;100535.69;5035531;28;20065;-82
2023/08/30 05:19:34;;;;;;;2.60;2.00;;;;;;;11.47;98.79;100544.97;5034889;28;20112;-82
2023/08/30 05:21:59;;;;;;;2.27;2.07;;;;;;;11.50;99.60;100539.72;5033554;28;20132;-82
2023/08/30 05:24:26;;;;;;;2.40;2.10;;;;;;;11.58;99.26;100543.84;5035124;28;20071;-82
2023/08/30 05:26:52;;;;;;;;;;;;;;;11.65;99.53;100541.94;5035051;28;20030;-82
2023/08/30 05:29:17;;;;;;;2.33;2.13;;;;;;;11.66;99.47;100540.19;5035153;28;19988;-82
2023/08/30 05:31:43;;;;;;;3.40;2.50;;;;;;;11.76;99.90;100546.03;5035136;28;20120;-82
2023/08/30 05:34:09;;;;;;;2.42;2.22;;;;;;;11.80;99.18;100547.66;5034206;28;20391;-82
2023/08/30 05:36:35;;;;;;;4.93;2.72;;;;;;;11.85;100.00;100544.03;5035172;28;20120;-81
2023/08/30 05:39:00;;;;;;;4.17;2.90;;;;;;;11.89;100.00;100540.47;5034657;28;20490;-81
2023/08/30 05:41:26;;;;;;;3.07;2.40;;;;;;;11.86;100.00;100524.09;5033347;28;20109;-81
2023/08/30 05:43:51;;;;;;;2.90;2.43;;;;;;;11.93;100.00;100523.03;5035011;28;20071;-80
2023/08/30 05:46:16;;;;;;;2.73;2.40;;;;;;;11.93;100.00;100510.03;5034807;28;20030;-79
2023/08/30 05:48:42;;;;;;;3.07;2.53;;;;;;;12.10;100.00;100534.78;5033439;28;20029;-79
2023/08/30 05:51:07;;;;;;;4.73;3.10;;;;;;;12.15;100.00;100528.56;5034183;28;20108;-81
2023/08/30 05:53:33;;;;;;;3.40;2.70;;;;;;;12.19;100.00;100526.75;5033838;28;20470;-81
2023/08/30 05:55:58;;;;;;;3.47;2.60;;;;;;;12.25;100.00;100517.91;5034557;28;20068;-82
2023/08/30 05:58:23;;;;;;;6.23;3.10;;;;;;;12.25;100.00;100515.31;5034689;28;20017;-80
2023/08/30 06:00:49;;;;;;;5.90;3.37;;;;;;;12.32;100.00;100507.31;5033477;28;20025;-79
2023/08/30 06:03:14;;;;;;;4.30;3.10;;;;;;;12.37;100.00;100512.38;5034235;28;20029;-80
2023/08/30 06:05:39;;;;;;;3.07;2.47;;;;;;;12.44;100.00;100516.50;5034416;28;20034;-80
2023/08/30 06:08:05;;;;;;;2.33;2.13;;;;;;;12.46;100.00;100514.72;5033446;28;20013;-80
2023/08/30 06:10:30;;;;;;;2.20;2.00;;;;;;;12.55;100.00;100523.16;5034734;28;20079;-79
2023/08/30 06:12:56;;;;;;;2.70;2.17;;;;;;;12.60;100.00;100521.28;5034564;28;20025;-79
2023/08/30 06:15:21;;;;;;;3.60;2.60;;;;;;;12.63;100.00;100509.03;5033575;28;20029;-79
2023/08/30 06:17:46;;;;;;;4.10;3.00;;;;;;;12.65;100.00;100509.84;5034660;28;20060;-79
2023/08/30 06:20:12;;;;;;;3.47;2.63;;;;;;;12.70;100.00;100512.28;5033354;28;20430;-82
2023/08/30 06:22:38;;;;;;;4.03;2.50;;;;;;;12.74;100.00;100508.69;5033457;28;20044;-81
2023/08/30 06:25:06;;;;;;;7.82;3.67;;;;;;;12.76;100.00;100509.50;5034371;28;20025;-81
2023/08/30 06:27:32;;;;;;;4.80;3.30;;;;;;;12.83;100.00;100511.00;5034048;28;20125;-81
2023/08/30 06:29:57;;;;;;;6.87;3.70;;;;;;;12.83;100.00;100508.41;5033602;28;20489;-81
2023/08/30 06:32:23;;;;;;;6.97;3.80;;;;;;;12.87;100.00;100509.19;5033933;28;20064;-81
2023/08/30 06:34:48;;;;;;;5.43;3.40;;;;;;;12.89;100.00;100502.16;5033760;28;20083;-82
2023/08/30 06:37:13;;;;;;;5.80;3.20;;;;;;;12.94;100.00;100504.66;5032998;28;20017;-81
2023/08/30 06:39:39;;;;;;;4.67;3.20;;;;;;;12.91;100.00;100499.53;5033953;28;20029;-80
2023/08/30 06:42:04;;;;;;;5.13;3.00;;;;;;;12.97;100.00;100512.34;5025941;28;20032;-80
2023/08/30 06:44:30;;;;;;;3.37;2.60;;;;;;;12.98;100.00;100514.06;5024843;28;20017;-80
2023/08/30 06:46:58;;;;;;;2.87;2.53;;;;;;;13.00;100.00;100520.06;5015451;28;20081;-83
2023/08/30 06:49:26;;;;;;;2.50;2.30;;;;;;;12.99;100.00;100520.97;5016104;28;20038;-79
2023/08/30 06:52:07;;;;;;;2.60;2.20;;;;;;;13.04;100.00;100524.31;5032901;28;20036;-83
2023/08/30 06:54:41;;;;;;;2.60;2.20;;;;;;;12.98;100.00;100506.25;5034082;28;20034;-84
2023/08/30 06:57:19;;;;;;;2.30;2.03;;;;;;;13.06;100.00;100522.47;5032147;28;20038;-84
2023/08/30 06:59:44;;;;;;;2.13;1.92;;;;;;;13.10;100.00;100526.72;5033817;28;20470;-83
2023/08/30 07:02:09;;;;;;;2.60;2.10;;;;;;;13.08;100.00;100522.44;5033337;28;20073;-83
2023/08/30 07:04:35;;;;;;;2.50;2.23;;;;;;;13.08;100.00;100525.06;5033844;28;20093;-80
2023/08/30 07:07:00;;;;;;;3.67;2.80;;;;;;;13.07;100.00;100525.94;5034528;28;20551;-82
2023/08/30 07:09:29;;;;;;;3.97;2.80;;;;;;;12.98;100.00;100516.66;5033883;28;20026;-84
2023/08/30 07:11:55;;;;;;;4.53;3.30;;;;;;;12.95;100.00;100503.72;5033571;28;20030;-83
2023/08/30 07:14:21;;;;;;;3.85;2.90;;;;;;;12.91;100.00;100489.94;5033943;28;20580;-84
2023/08/30 07:16:46;;;;;;;5.47;3.40;;;;;;;12.80;100.00;100472.06;5033403;28;20043;-83
2023/08/30 07:19:11;;;;;;;6.60;4.03;;;;;;;12.89;100.00;100488.28;5032270;28;20032;-83
2023/08/30 07:21:38;;;;;;;7.33;3.93;;;;;;;12.84;100.00;100483.22;5033536;28;20049;-83
2023/08/30 07:24:04;;;;;;;;;;;;;;;12.82;100.00;100478.09;5033876;28;20075;-83
2023/08/30 07:26:30;;;;;;;9.95;5.05;;;;;;;12.79;100.00;100472.97;5032995;28;20285;-83
2023/08/30 07:28:55;;;;;;;7.90;4.50;;;;;;;12.72;100.00;100465.38;5033463;28;20025;-83
2023/08/30 07:31:29;;;;;;;7.87;4.37;;;;;;;12.70;100.00;100456.75;5032173;28;20385;-83
2023/08/30 07:33:59;;;;;;;7.63;4.28;;;;;;;12.69;100.00;100465.47;5032555;28;20021;-84
2023/08/30 07:36:28;;;;;;;6.15;3.78;;;;;;;12.71;100.00;100474.09;5032911;28;20025;-83
2023/08/30 07:38:54;;;;;;;5.15;3.40;;;;;;;12.63;100.00;100458.69;5033437;28;20381;-82
2023/08/30 07:41:19;;;;;;;8.57;4.27;;;;;;;12.68;100.00;100459.41;5032641;28;20120;-80
2023/08/30 07:43:44;;;;;;;8.17;4.00;;;;;;;12.67;100.00;100455.94;5033157;28;20021;-80
2023/08/30 07:46:10;;;;;;;7.23;3.80;;;;;;;12.74;100.00;100461.81;5032202;28;20025;-80
2023/08/30 07:48:35;;;;;;;9.83;4.70;;;;;;;12.73;100.00;100467.91;5033321;28;20445;-80
2023/08/30 07:51:00;;;;;;;8.03;4.70;;;;;;;12.69;100.00;100449.84;5032094;28;20030;-80
2023/08/30 07:53:26;;;;;;;8.40;4.90;;;;;;;12.74;100.00;100453.16;5032772;28;20112;-80
2023/08/30 07:55:57;;;;;;;8.73;4.90;;;;;;;12.69;100.00;100442.91;5034195;28;20076;-80
2023/08/30 07:58:23;;;;;;;7.20;4.20;;;;;;;12.70;100.00;100438.53;5033260;28;20036;-84
2023/08/30 08:00:54;;;;;;;7.77;4.60;;;;;;;12.78;100.00;100446.94;5033302;28;20104;-80
2023/08/30 08:03:21;;;;;;;6.65;4.00;;;;;;;12.77;100.00;100440.91;5033586;28;20029;-81
2023/08/30 08:05:53;;;;;;;7.50;3.83;;;;;;;12.87;100.00;100456.22;5033996;28;20437;-83
2023/08/30 08:08:18;;;;;;;9.43;4.75;;;;;;;12.86;100.00;100454.53;5032858;28;20022;-80
2023/08/30 08:10:44;;;;;;;9.00;4.27;;;;;;;12.87;100.00;100446.69;5034086;28;20029;-80
2023/08/30 08:13:10;;;;;;;6.47;3.87;;;;;;;12.88;100.00;100451.00;5023373;28;20148;-80
2023/08/30 08:15:38;;;;;;;8.82;4.68;;;;;;;12.92;100.00;100454.34;5032555;28;20068;-80
2023/08/30 08:18:03;;;;;;;8.85;4.80;;;;;;;12.90;100.00;100451.78;5028797;28;20105;-80
2023/08/30 08:20:29;;;;;;;7.10;4.40;;;;;;;12.88;100.00;100445.78;5021617;28;20128;-80
2023/08/30 08:22:54;;;;;;;8.20;4.40;;;;;;;12.94;100.00;100447.34;5023670;28;20030;-80
2023/08/30 08:25:21;;;;;;;7.93;4.37;;;;;;;12.91;100.00;100448.28;5019645;28;20041;-80
2023/08/30 08:27:47;;;;;;;5.88;3.92;;;;;;;12.92;100.00;100455.19;5024726;28;20041;-81
2023/08/30 08:30:15;;;;;;;6.20;3.73;;;;;;;12.86;100.00;100447.59;5020655;28;20530;-80
2023/08/30 08:32:41;;;;;;;6.53;3.63;;;;;;;12.96;100.00;100458.53;5026109;28;20093;-80
2023/08/30 08:35:06;;;;;;;5.47;3.40;;;;;;;13.04;100.00;100445.28;5021736;28;20037;-81
2023/08/30 08:37:32;;;;;;;6.23;3.80;;;;;;;13.01;100.00;100455.78;5020801;28;20030;-81
2023/08/30 08:39:58;;;;;;;5.03;3.20;;;;;;;13.02;100.00;100455.75;5026242;28;20452;-81
2023/08/30 08:42:23;;;;;;;6.43;3.60;;;;;;;13.07;100.00;100456.44;5019533;28;20287;-80
2023/08/30 08:44:53;;;;;;;7.07;4.03;;;;;;;12.97;100.00;100434.19;5026093;28;20026;-80
2023/08/30 08:47:30;;;;;;;5.40;3.63;;;;;;;13.05;100.00;100454.81;5020023;28;20351;-80
2023/08/30 08:50:03;;;;;;;6.22;3.25;;;;;;;13.00;100.00;100441.94;5021696;28;20067;-80
2023/08/30 08:52:28;;;;;;;4.18;2.83;;;;;;;13.07;100.00;100437.38;5025321;28;20032;-80
2023/08/30 08:54:54;;;;;;;5.97;3.53;;;;;;;13.09;100.00;100441.63;5015934;28;20124;-80
2023/08/30 08:57:20;;;;;;;6.95;3.53;;;;;;;13.06;100.00;100440.88;5033179;28;20026;-81
2023/08/30 08:59:46;;;;;;;6.82;3.60;;;;;;;13.10;100.00;100445.94;5028018;28;20022;-80
2023/08/30 09:02:28;;;;;;;5.40;3.50;;;;;;;13.00;100.00;100431.50;5026477;28;20022;-80
2023/08/30 09:04:54;;;;;;;4.78;3.20;;;;;;;13.10;100.00;100443.34;5025417;28;20059;-80
2023/08/30 09:07:20;;;;;;;5.00;3.25;;;;;;;13.16;100.00;100442.28;5030732;28;20018;-80
2023/08/30 09:09:46;;;;;;;6.47;3.50;;;;;;;13.26;100.00;100435.88;5025189;28;20151;-81
2023/08/30 09:12:12;;;;;;;5.60;3.20;;;;;;;13.28;100.00;100428.03;5023525;28;20064;-80
2023/08/30 09:14:37;;;;;;;5.27;3.30;;;;;;;13.38;100.00;100429.41;5028903;28;20469;-80
2023/08/30 09:17:03;;;;;;;5.50;3.30;;;;;;;13.53;100.00;100429.81;5031788;28;20112;-80
2023/08/30 09:19:29;;;;;;;5.27;3.57;;;;;;;13.67;100.00;100435.41;5033777;28;20059;-79
2023/08/30 09:21:55;;;;;;;;;;;;;;;13.88;100.00;100436.41;5034789;28;20041;-80
2023/08/30 09:24:21;;;;;;;5.72;3.50;;;;;;;14.04;100.00;100431.50;5034378;28;19917;-80
2023/08/30 09:26:49;;;;;;;4.23;3.10;;;;;;;14.26;100.00;100435.91;5033719;28;20029;-80
2023/08/30 09:29:16;;;;;;;3.88;2.92;;;;;;;14.45;100.00;100446.53;5027263;28;20477;-80
2023/08/30 09:31:42;;;;;;;5.50;3.90;;;;;;;14.47;100.00;100441.25;5033747;28;20022;-81
2023/08/30 09:34:08;;;;;;;5.27;3.50;;;;;;;14.48;100.00;100446.38;5031695;28;20072;-81
2023/08/30 09:36:37;;;;;;;6.22;4.07;;;;;;;14.48;100.00;100449.00;5034549;28;20040;-81
2023/08/30 09:39:04;;;;;;;6.20;3.95;;;;;;;14.50;100.00;100438.53;5030911;28;20030;-81
2023/08/30 09:41:30;;;;;;;5.65;3.90;;;;;;;14.49;100.00;100442.88;5028610;28;20025;-81
2023/08/30 09:43:56;;;;;;;4.47;3.50;;;;;;;14.51;100.00;100448.06;5031568;28;20030;-81
2023/08/30 09:46:23;;;;;;;7.53;3.90;;;;;;;14.46;100.00;100424.75;5033577;28;20061;-81
2023/08/30 09:48:49;;;;;;;;;;;;;;;14.72;100.00;100435.09;5023887;28;20080;-82
2023/08/30 09:51:15;;;;;;;5.68;3.78;;;;;;;14.80;100.00;100440.88;5032412;28;19925;-82
2023/08/30 09:53:49;;;;;;;5.15;3.50;;;;;;;14.84;100.00;100445.06;5029674;28;20033;-82
2023/08/30 09:56:15;;;;;;;5.85;3.88;;;;;;;14.89;100.00;100448.34;5022805;28;20037;-80
2023/08/30 09:58:50;;;;;;;6.90;3.78;;;;;;;14.96;100.00;100438.50;5022187;28;20048;-81
2023/08/30 10:01:15;;;;;;;7.97;4.13;;;;;;;15.11;100.00;100442.25;5032805;28;20116;-82
2023/08/30 10:03:42;;;;;;;7.90;4.60;;;;;;;15.27;100.00;100435.50;5027287;28;20044;-82
2023/08/30 10:06:10;;;;;;;;;;;;;;;15.47;100.00;100439.03;5027856;28;20535;-82
2023/08/30 10:08:49;;;;;;;8.15;4.70;;;;;;;15.69;100.00;100418.06;5032759;28;19920;-82
2023/08/30 10:14:27;;;;;;;7.25;4.60;;;;;;;16.53;100.00;100424.78;5023037;28;20861;-82
2023/08/30 10:17:08;;;;;;;10.18;6.05;;;;;;;16.74;100.00;100430.78;5030976;28;20025;-82
2023/08/30 10:19:34;;;;;;;8.30;5.63;;;;;;;16.67;100.00;100419.75;5026332;28;20030;-82
2023/08/30 10:22:12;;;;;;;7.38;4.90;;;;;;;16.80;100.00;100425.25;5025330;28;20057;-82
2023/08/30 10:24:58;;;;;;;5.95;4.18;;;;;;;16.93;100.00;100425.53;5031567;28;20056;-82
2023/08/30 10:27:25;;;;;;;6.57;4.53;;;;;;;17.01;100.00;100430.41;5014288;28;20062;-83
2023/08/30 10:29:51;;;;;;;6.00;4.40;;;;;;;17.01;100.00;100412.03;5030501;28;20079;-83
2023/08/30 10:32:23;;;;;;;4.10;3.53;;;;;;;17.07;100.00;100427.50;5034313;28;20516;-83
2023/08/30 10:34:50;;;;;;;6.93;4.45;;;;;;;17.09;100.00;100416.91;5034225;28;20645;-82
2023/08/30 10:37:21;;;;;;;5.85;3.97;;;;;;;17.06;100.00;100409.19;5034043;28;20100;-82
2023/08/30 10:39:50;;;;;;;6.43;4.50;;;;;;;16.97;100.00;100410.53;5033630;28;20083;-83
2023/08/30 10:42:22;;;;;;;6.95;5.00;;;;;;;17.00;100.00;100412.97;5033379;28;20087;-83
2023/08/30 10:44:52;;;;;;;5.28;3.97;;;;;;;17.09;100.00;100406.44;5015037;28;20033;-83
2023/08/30 10:47:30;;;;;;;4.35;3.50;;;;;;;17.25;100.00;100406.50;5013819;28;20072;-82
2023/08/30 10:49:57;;;;;;;5.75;4.15;;;;;;;17.58;100.00;100403.09;5025509;28;20021;-82
2023/08/30 10:52:23;;;;;;;5.75;4.13;;;;;;;17.70;100.00;100412.13;5033756;28;20504;-82
2023/08/30 10:54:50;;;;;;;5.20;4.10;;;;;;;17.70;100.00;100415.56;5033651;28;20116;-83
2023/08/30 10:57:19;;;;;;;;;;;;;;;17.68;100.00;100416.59;5033371;28;20054;-82
2023/08/30 11:00:30;;;;;;;4.88;3.47;;;;;;;17.55;100.00;100411.16;5030575;28;19999;-84
2023/08/30 11:02:56;;;;;;;2.97;2.67;;;;;;;17.39;100.00;100409.28;5029994;28;20219;-82
2023/08/30 11:05:23;;;;;;;3.87;3.10;;;;;;;17.28;100.00;100415.06;5032902;28;20029;-82
2023/08/30 11:07:50;;;;;;;2.95;2.65;;;;;;;17.20;100.00;100421.66;5034079;28;20026;-82
2023/08/30 11:10:19;;;;;;;2.50;2.30;;;;;;;17.16;100.00;100404.34;5032994;28;20067;-83
2023/08/30 11:12:45;;;;;;;2.40;2.20;;;;;;;17.12;100.00;100415.00;5034247;28;20040;-82
2023/08/30 11:15:14;;;;;;;2.53;2.33;;;;;;;17.07;100.00;100416.13;5033861;28;20436;-81
2023/08/30 11:17:39;;;;;;;3.22;2.78;;;;;;;17.02;100.00;100415.53;5033377;28;20037;-81
2023/08/30 11:20:07;;;;;;;4.33;3.20;;;;;;;17.03;98.41;100415.44;5033252;28;20364;-82
2023/08/30 11:22:45;;;;;;;2.85;2.60;;;;;;;17.11;100.00;100420.31;5034050;28;20037;-83
2023/08/30 11:25:12;;;;;;;2.70;2.50;;;;;;;17.24;100.00;100431.03;5024513;28;20053;-83
2023/08/30 11:27:38;;;;;;;2.63;2.40;;;;;;;17.37;99.65;100424.25;5013568;28;20037;-77